sensor_id;sensor_type;location;lat;lon;timestamp;P1;durP1;ratioP1;P2;durP2;ratioP2
19189;SDS011;9727;50.200;19.038;2024-03-23T00:55:17;25.13;;;15.30;;
19189;SDS011;9727;50.200;19.038;2024-03-23T00:57:42;26.30;;;14.27;;
19189;SDS011;9727;50.200;19.038;2024-03-23T01:00:09;26.77;;;15.73;;
19189;SDS011;9727;50.200;19.038;2024-03-23T01:02:35;26.93;;;15.47;;
19189;SDS011;9727;50.200;19.038;2024-03-23T01:05:02;23.67;;;14.77;;
19189;SDS011;9727;50.200;19.038;2024-03-23T01:07:27;26.33;;;15.27;;
19189;SDS011;9727;50.200;19.038;2024-03-23T01:09:54;24.37;;;15.00;;
19189;SDS011;9727;50.200;19.038;2024-03-23T01:12:21;24.77;;;14.80;;
19189;SDS011;9727;50.200;19.038;2024-03-23T01:14:47;25.33;;;14.80;;
19189;SDS011;9727;50.200;19.038;2024-03-23T01:17:13;26.40;;;15.37;;
19189;SDS011;9727;50.200;19.038;2024-03-23T01:19:39;22.77;;;13.80;;
19189;SDS011;9727;50.200;19.038;2024-03-23T01:22:06;26.53;;;14.50;;
19189;SDS011;9727;50.200;19.038;2024-03-23T01:24:34;23.60;;;13.67;;
19189;SDS011;9727;50.200;19.038;2024-03-23T01:27:02;25.47;;;14.20;;
19189;SDS011;9727;50.200;19.038;2024-03-23T01:29:30;23.00;;;13.13;;
19189;SDS011;9727;50.200;19.038;2024-03-23T01:31:56;24.40;;;13.23;;
19189;SDS011;9727;50.200;19.038;2024-03-23T01:34:22;23.20;;;13.40;;
19189;SDS011;9727;50.200;19.038;2024-03-23T01:36:50;26.03;;;14.20;;
19189;SDS011;9727;50.200;19.038;2024-03-23T01:39:15;24.40;;;13.80;;
19189;SDS011;9727;50.200;19.038;2024-03-23T01:41:42;22.60;;;12.70;;
19189;SDS011;9727;50.200;19.038;2024-03-23T01:44:08;24.37;;;15.13;;
19189;SDS011;9727;50.200;19.038;2024-03-23T01:46:37;23.43;;;14.27;;
19189;SDS011;9727;50.200;19.038;2024-03-23T01:49:04;26.07;;;13.80;;
19189;SDS011;9727;50.200;19.038;2024-03-23T01:51:30;27.20;;;14.40;;
19189;SDS011;9727;50.200;19.038;2024-03-23T01:53:58;23.73;;;14.13;;
19189;SDS011;9727;50.200;19.038;2024-03-23T01:56:26;23.93;;;14.83;;
19189;SDS011;9727;50.200;19.038;2024-03-23T01:58:51;29.37;;;15.57;;
19189;SDS011;9727;50.200;19.038;2024-03-23T02:01:18;23.90;;;15.50;;
19189;SDS011;9727;50.200;19.038;2024-03-23T02:03:45;26.87;;;14.87;;
19189;SDS011;9727;50.200;19.038;2024-03-23T02:06:12;22.10;;;14.20;;
19189;SDS011;9727;50.200;19.038;2024-03-23T02:08:40;23.37;;;13.70;;
19189;SDS011;9727;50.200;19.038;2024-03-23T02:11:07;23.27;;;14.20;;
19189;SDS011;9727;50.200;19.038;2024-03-23T02:13:35;24.73;;;13.87;;
19189;SDS011;9727;50.200;19.038;2024-03-23T02:16:02;26.20;;;14.37;;
19189;SDS011;9727;50.200;19.038;2024-03-23T02:18:28;24.00;;;14.20;;
19189;SDS011;9727;50.200;19.038;2024-03-23T02:20:56;29.20;;;16.20;;
19189;SDS011;9727;50.200;19.038;2024-03-23T02:23:23;29.13;;;18.17;;
19189;SDS011;9727;50.200;19.038;2024-03-23T02:25:53;30.30;;;18.50;;
19189;SDS011;9727;50.200;19.038;2024-03-23T02:28:18;30.27;;;17.87;;
19189;SDS011;9727;50.200;19.038;2024-03-23T02:30:45;32.37;;;19.00;;
19189;SDS011;9727;50.200;19.038;2024-03-23T02:33:11;30.10;;;17.67;;
19189;SDS011;9727;50.200;19.038;2024-03-23T02:35:37;26.93;;;16.57;;
19189;SDS011;9727;50.200;19.038;2024-03-23T02:38:03;36.80;;;17.93;;
19189;SDS011;9727;50.200;19.038;2024-03-23T02:40:31;31.17;;;16.87;;
19189;SDS011;9727;50.200;19.038;2024-03-23T02:42:56;27.50;;;16.40;;
19189;SDS011;9727;50.200;19.038;2024-03-23T02:45:23;25.07;;;15.43;;
19189;SDS011;9727;50.200;19.038;2024-03-23T02:47:48;28.30;;;16.23;;
19189;SDS011;9727;50.200;19.038;2024-03-23T02:50:17;27.43;;;17.33;;
19189;SDS011;9727;50.200;19.038;2024-03-23T02:52:42;28.37;;;17.47;;
19189;SDS011;9727;50.200;19.038;2024-03-23T02:55:09;29.73;;;17.00;;
19189;SDS011;9727;50.200;19.038;2024-03-23T02:57:37;29.00;;;17.27;;
19189;SDS011;9727;50.200;19.038;2024-03-23T03:00:06;26.90;;;16.20;;
19189;SDS011;9727;50.200;19.038;2024-03-23T03:02:36;29.17;;;17.00;;
19189;SDS011;9727;50.200;19.038;2024-03-23T03:05:04;27.37;;;16.40;;
19189;SDS011;9727;50.200;19.038;2024-03-23T03:07:30;27.87;;;16.67;;
19189;SDS011;9727;50.200;19.038;2024-03-23T03:09:58;28.83;;;17.47;;
19189;SDS011;9727;50.200;19.038;2024-03-23T03:12:24;27.93;;;17.03;;
19189;SDS011;9727;50.200;19.038;2024-03-23T03:14:52;27.73;;;17.13;;
19189;SDS011;9727;50.200;19.038;2024-03-23T03:17:17;27.90;;;16.50;;
19189;SDS011;9727;50.200;19.038;2024-03-23T03:19:44;29.00;;;17.50;;
19189;SDS011;9727;50.200;19.038;2024-03-23T03:22:10;28.87;;;17.07;;
19189;SDS011;9727;50.200;19.038;2024-03-23T03:24:37;32.77;;;18.63;;
19189;SDS011;9727;50.200;19.038;2024-03-23T03:27:02;29.57;;;18.00;;
19189;SDS011;9727;50.200;19.038;2024-03-23T03:29:29;31.73;;;17.43;;
19189;SDS011;9727;50.200;19.038;2024-03-23T03:32:02;28.57;;;17.30;;
19189;SDS011;9727;50.200;19.038;2024-03-23T03:34:28;29.20;;;17.00;;
19189;SDS011;9727;50.200;19.038;2024-03-23T03:36:54;30.63;;;18.63;;
19189;SDS011;9727;50.200;19.038;2024-03-23T03:39:20;29.03;;;17.27;;
19189;SDS011;9727;50.200;19.038;2024-03-23T03:41:50;31.50;;;18.10;;
19189;SDS011;9727;50.200;19.038;2024-03-23T03:44:17;27.27;;;16.93;;
19189;SDS011;9727;50.200;19.038;2024-03-23T03:46:44;30.77;;;17.40;;
19189;SDS011;9727;50.200;19.038;2024-03-23T03:49:12;30.30;;;17.90;;
19189;SDS011;9727;50.200;19.038;2024-03-23T03:51:38;30.40;;;17.60;;
19189;SDS011;9727;50.200;19.038;2024-03-23T03:54:04;29.23;;;17.47;;
19189;SDS011;9727;50.200;19.038;2024-03-23T03:56:30;26.63;;;16.87;;
19189;SDS011;9727;50.200;19.038;2024-03-23T03:58:56;28.47;;;17.90;;
19189;SDS011;9727;50.200;19.038;2024-03-23T04:01:22;30.47;;;16.53;;
19189;SDS011;9727;50.200;19.038;2024-03-23T04:03:48;25.83;;;15.47;;
19189;SDS011;9727;50.200;19.038;2024-03-23T04:06:19;27.47;;;16.40;;
19189;SDS011;9727;50.200;19.038;2024-03-23T04:08:46;31.10;;;18.13;;
19189;SDS011;9727;50.200;19.038;2024-03-23T04:11:11;26.90;;;17.03;;
19189;SDS011;9727;50.200;19.038;2024-03-23T04:13:38;33.13;;;18.17;;
19189;SDS011;9727;50.200;19.038;2024-03-23T04:16:06;32.67;;;19.77;;
19189;SDS011;9727;50.200;19.038;2024-03-23T04:18:33;28.60;;;17.07;;
19189;SDS011;9727;50.200;19.038;2024-03-23T04:20:58;28.93;;;17.80;;
19189;SDS011;9727;50.200;19.038;2024-03-23T04:23:26;26.33;;;15.30;;
19189;SDS011;9727;50.200;19.038;2024-03-23T04:25:52;26.73;;;15.40;;
19189;SDS011;9727;50.200;19.038;2024-03-23T04:28:18;24.67;;;14.70;;
19189;SDS011;9727;50.200;19.038;2024-03-23T04:30:44;23.87;;;14.00;;
19189;SDS011;9727;50.200;19.038;2024-03-23T04:33:10;21.37;;;13.97;;
19189;SDS011;9727;50.200;19.038;2024-03-23T04:35:36;24.73;;;14.50;;
19189;SDS011;9727;50.200;19.038;2024-03-23T04:38:03;23.90;;;13.97;;
19189;SDS011;9727;50.200;19.038;2024-03-23T04:40:31;24.83;;;14.93;;
19189;SDS011;9727;50.200;19.038;2024-03-23T04:42:59;22.90;;;13.37;;
19189;SDS011;9727;50.200;19.038;2024-03-23T04:45:26;22.80;;;14.17;;
19189;SDS011;9727;50.200;19.038;2024-03-23T04:47:53;26.60;;;13.93;;
19189;SDS011;9727;50.200;19.038;2024-03-23T04:50:19;23.80;;;13.13;;
19189;SDS011;9727;50.200;19.038;2024-03-23T04:52:48;19.37;;;12.17;;
19189;SDS011;9727;50.200;19.038;2024-03-23T04:55:14;21.50;;;12.20;;
19189;SDS011;9727;50.200;19.038;2024-03-23T04:57:43;21.30;;;12.77;;
19189;SDS011;9727;50.200;19.038;2024-03-23T05:00:09;18.63;;;11.97;;
19189;SDS011;9727;50.200;19.038;2024-03-23T05:02:43;18.77;;;11.70;;
19189;SDS011;9727;50.200;19.038;2024-03-23T05:05:08;18.80;;;12.47;;
19189;SDS011;9727;50.200;19.038;2024-03-23T05:07:35;20.13;;;12.10;;
19189;SDS011;9727;50.200;19.038;2024-03-23T05:10:01;19.70;;;12.17;;
19189;SDS011;9727;50.200;19.038;2024-03-23T05:12:31;19.43;;;11.53;;
19189;SDS011;9727;50.200;19.038;2024-03-23T05:14:58;19.30;;;11.90;;
19189;SDS011;9727;50.200;19.038;2024-03-23T05:17:25;19.27;;;11.60;;
19189;SDS011;9727;50.200;19.038;2024-03-23T05:19:51;19.90;;;11.57;;
19189;SDS011;9727;50.200;19.038;2024-03-23T05:22:17;20.40;;;11.87;;
19189;SDS011;9727;50.200;19.038;2024-03-23T05:24:44;22.43;;;12.07;;
19189;SDS011;9727;50.200;19.038;2024-03-23T05:27:11;20.17;;;11.90;;
19189;SDS011;9727;50.200;19.038;2024-03-23T05:29:37;18.10;;;11.80;;
19189;SDS011;9727;50.200;19.038;2024-03-23T05:32:05;20.90;;;12.97;;
19189;SDS011;9727;50.200;19.038;2024-03-23T05:34:31;26.30;;;12.67;;
19189;SDS011;9727;50.200;19.038;2024-03-23T05:36:58;20.60;;;13.03;;
19189;SDS011;9727;50.200;19.038;2024-03-23T05:39:24;19.80;;;12.63;;
19189;SDS011;9727;50.200;19.038;2024-03-23T05:41:51;21.97;;;13.30;;
19189;SDS011;9727;50.200;19.038;2024-03-23T05:44:19;21.47;;;14.17;;
19189;SDS011;9727;50.200;19.038;2024-03-23T05:46:46;22.63;;;13.40;;
19189;SDS011;9727;50.200;19.038;2024-03-23T05:49:15;20.67;;;12.97;;
19189;SDS011;9727;50.200;19.038;2024-03-23T05:51:42;22.37;;;13.20;;
19189;SDS011;9727;50.200;19.038;2024-03-23T05:54:08;22.50;;;13.40;;
19189;SDS011;9727;50.200;19.038;2024-03-23T05:56:37;18.83;;;12.43;;
19189;SDS011;9727;50.200;19.038;2024-03-23T05:59:03;25.30;;;14.53;;
19189;SDS011;9727;50.200;19.038;2024-03-23T06:01:29;25.20;;;15.17;;
19189;SDS011;9727;50.200;19.038;2024-03-23T06:03:58;25.13;;;14.67;;
19189;SDS011;9727;50.200;19.038;2024-03-23T06:06:27;26.70;;;15.43;;
19189;SDS011;9727;50.200;19.038;2024-03-23T06:08:55;25.33;;;15.80;;
19189;SDS011;9727;50.200;19.038;2024-03-23T06:20:10;32.37;;;18.03;;
19189;SDS011;9727;50.200;19.038;2024-03-23T06:22:38;24.90;;;16.30;;
19189;SDS011;9727;50.200;19.038;2024-03-23T06:25:05;24.47;;;15.53;;
19189;SDS011;9727;50.200;19.038;2024-03-23T06:27:32;30.37;;;16.47;;
19189;SDS011;9727;50.200;19.038;2024-03-23T06:29:58;24.43;;;16.53;;
19189;SDS011;9727;50.200;19.038;2024-03-23T06:32:25;25.40;;;15.07;;
19189;SDS011;9727;50.200;19.038;2024-03-23T06:34:52;24.80;;;15.87;;
19189;SDS011;9727;50.200;19.038;2024-03-23T06:37:18;25.43;;;15.30;;
19189;SDS011;9727;50.200;19.038;2024-03-23T06:39:56;22.70;;;15.17;;
19189;SDS011;9727;50.200;19.038;2024-03-23T06:42:25;25.17;;;15.13;;
19189;SDS011;9727;50.200;19.038;2024-03-23T06:44:50;24.07;;;15.47;;
19189;SDS011;9727;50.200;19.038;2024-03-23T06:47:17;25.43;;;15.33;;
19189;SDS011;9727;50.200;19.038;2024-03-23T06:49:45;26.33;;;15.40;;
19189;SDS011;9727;50.200;19.038;2024-03-23T06:52:11;23.10;;;14.83;;
19189;SDS011;9727;50.200;19.038;2024-03-23T06:54:38;24.10;;;15.83;;
19189;SDS011;9727;50.200;19.038;2024-03-23T06:57:06;24.13;;;14.67;;
19189;SDS011;9727;50.200;19.038;2024-03-23T06:59:32;26.00;;;14.63;;
19189;SDS011;9727;50.200;19.038;2024-03-23T07:02:01;26.53;;;14.83;;
19189;SDS011;9727;50.200;19.038;2024-03-23T07:04:27;23.47;;;14.50;;
19189;SDS011;9727;50.200;19.038;2024-03-23T07:06:53;23.17;;;13.10;;
19189;SDS011;9727;50.200;19.038;2024-03-23T07:09:19;22.60;;;13.40;;
19189;SDS011;9727;50.200;19.038;2024-03-23T07:11:50;24.10;;;13.77;;
19189;SDS011;9727;50.200;19.038;2024-03-23T07:14:17;25.80;;;13.63;;
19189;SDS011;9727;50.200;19.038;2024-03-23T07:16:43;24.50;;;13.87;;
19189;SDS011;9727;50.200;19.038;2024-03-23T07:19:09;20.50;;;13.23;;
19189;SDS011;9727;50.200;19.038;2024-03-23T07:21:36;23.43;;;13.80;;
19189;SDS011;9727;50.200;19.038;2024-03-23T07:24:01;22.93;;;14.97;;
19189;SDS011;9727;50.200;19.038;2024-03-23T07:26:29;24.00;;;14.33;;
19189;SDS011;9727;50.200;19.038;2024-03-23T07:28:56;21.93;;;14.07;;
19189;SDS011;9727;50.200;19.038;2024-03-23T07:31:24;23.47;;;14.10;;
19189;SDS011;9727;50.200;19.038;2024-03-23T07:33:50;20.80;;;13.87;;
19189;SDS011;9727;50.200;19.038;2024-03-23T07:36:17;19.60;;;13.27;;
19189;SDS011;9727;50.200;19.038;2024-03-23T07:38:45;22.03;;;13.63;;
19189;SDS011;9727;50.200;19.038;2024-03-23T07:41:13;23.03;;;14.23;;
19189;SDS011;9727;50.200;19.038;2024-03-23T07:43:40;23.43;;;14.33;;
19189;SDS011;9727;50.200;19.038;2024-03-23T07:46:06;19.37;;;13.17;;
19189;SDS011;9727;50.200;19.038;2024-03-23T07:48:33;22.97;;;14.33;;
19189;SDS011;9727;50.200;19.038;2024-03-23T07:51:00;21.53;;;13.57;;
19189;SDS011;9727;50.200;19.038;2024-03-23T07:53:26;20.50;;;14.07;;
19189;SDS011;9727;50.200;19.038;2024-03-23T07:55:58;20.10;;;13.67;;
19189;SDS011;9727;50.200;19.038;2024-03-23T07:58:25;21.13;;;13.63;;
19189;SDS011;9727;50.200;19.038;2024-03-23T08:00:52;22.57;;;15.03;;
19189;SDS011;9727;50.200;19.038;2024-03-23T08:03:18;22.80;;;14.97;;
19189;SDS011;9727;50.200;19.038;2024-03-23T08:05:46;23.27;;;15.80;;
19189;SDS011;9727;50.200;19.038;2024-03-23T08:08:12;23.87;;;15.57;;
19189;SDS011;9727;50.200;19.038;2024-03-23T08:10:46;24.13;;;16.00;;
19189;SDS011;9727;50.200;19.038;2024-03-23T08:13:12;24.67;;;16.10;;
19189;SDS011;9727;50.200;19.038;2024-03-23T08:15:39;24.23;;;15.60;;
19189;SDS011;9727;50.200;19.038;2024-03-23T08:18:05;25.20;;;17.03;;
19189;SDS011;9727;50.200;19.038;2024-03-23T08:20:31;22.50;;;15.70;;
19189;SDS011;9727;50.200;19.038;2024-03-23T08:23:01;21.87;;;14.43;;
19189;SDS011;9727;50.200;19.038;2024-03-23T08:25:30;18.07;;;13.03;;
19189;SDS011;9727;50.200;19.038;2024-03-23T08:27:55;15.07;;;10.07;;
19189;SDS011;9727;50.200;19.038;2024-03-23T08:30:24;14.03;;;8.27;;
19189;SDS011;9727;50.200;19.038;2024-03-23T08:32:49;12.10;;;8.73;;
19189;SDS011;9727;50.200;19.038;2024-03-23T08:35:16;12.00;;;8.40;;
19189;SDS011;9727;50.200;19.038;2024-03-23T08:37:46;10.60;;;7.57;;
19189;SDS011;9727;50.200;19.038;2024-03-23T08:40:15;11.47;;;7.73;;
19189;SDS011;9727;50.200;19.038;2024-03-23T08:42:41;11.63;;;7.90;;
19189;SDS011;9727;50.200;19.038;2024-03-23T08:45:10;11.63;;;7.07;;
19189;SDS011;9727;50.200;19.038;2024-03-23T08:47:35;9.83;;;7.17;;
19189;SDS011;9727;50.200;19.038;2024-03-23T08:50:02;10.43;;;7.20;;
19189;SDS011;9727;50.200;19.038;2024-03-23T08:52:27;10.20;;;6.73;;
19189;SDS011;9727;50.200;19.038;2024-03-23T08:54:55;10.40;;;6.70;;
19189;SDS011;9727;50.200;19.038;2024-03-23T08:57:22;12.00;;;6.23;;
19189;SDS011;9727;50.200;19.038;2024-03-23T08:59:49;9.87;;;6.63;;
19189;SDS011;9727;50.200;19.038;2024-03-23T09:02:14;10.07;;;6.33;;
19189;SDS011;9727;50.200;19.038;2024-03-23T09:04:41;11.13;;;6.23;;
19189;SDS011;9727;50.200;19.038;2024-03-23T09:07:06;8.97;;;5.90;;
19189;SDS011;9727;50.200;19.038;2024-03-23T09:09:33;7.83;;;5.57;;
19189;SDS011;9727;50.200;19.038;2024-03-23T09:11:59;10.43;;;5.90;;
19189;SDS011;9727;50.200;19.038;2024-03-23T09:14:27;9.60;;;5.23;;
19189;SDS011;9727;50.200;19.038;2024-03-23T09:16:52;8.50;;;5.33;;
19189;SDS011;9727;50.200;19.038;2024-03-23T09:19:19;10.13;;;5.70;;
19189;SDS011;9727;50.200;19.038;2024-03-23T09:21:46;7.23;;;5.20;;
19189;SDS011;9727;50.200;19.038;2024-03-23T09:24:12;8.13;;;5.20;;
19189;SDS011;9727;50.200;19.038;2024-03-23T09:26:38;7.20;;;5.20;;
19189;SDS011;9727;50.200;19.038;2024-03-23T09:29:04;8.47;;;5.17;;
19189;SDS011;9727;50.200;19.038;2024-03-23T09:31:31;7.57;;;5.27;;
19189;SDS011;9727;50.200;19.038;2024-03-23T09:33:59;9.60;;;5.47;;
19189;SDS011;9727;50.200;19.038;2024-03-23T09:36:24;8.33;;;4.93;;
19189;SDS011;9727;50.200;19.038;2024-03-23T09:38:51;9.30;;;4.63;;
19189;SDS011;9727;50.200;19.038;2024-03-23T09:41:17;7.23;;;5.47;;
19189;SDS011;9727;50.200;19.038;2024-03-23T09:43:45;9.13;;;5.13;;
19189;SDS011;9727;50.200;19.038;2024-03-23T09:46:14;7.30;;;4.90;;
19189;SDS011;9727;50.200;19.038;2024-03-23T09:48:45;8.10;;;5.40;;
19189;SDS011;9727;50.200;19.038;2024-03-23T09:51:11;9.93;;;5.50;;
19189;SDS011;9727;50.200;19.038;2024-03-23T09:53:38;7.23;;;5.10;;
19189;SDS011;9727;50.200;19.038;2024-03-23T09:56:04;9.97;;;5.50;;
19189;SDS011;9727;50.200;19.038;2024-03-23T09:58:30;9.60;;;5.73;;
19189;SDS011;9727;50.200;19.038;2024-03-23T10:01:02;7.23;;;5.00;;
19189;SDS011;9727;50.200;19.038;2024-03-23T10:03:30;11.00;;;5.50;;
19189;SDS011;9727;50.200;19.038;2024-03-23T10:06:03;7.87;;;5.10;;
19189;SDS011;9727;50.200;19.038;2024-03-23T10:08:30;8.63;;;5.67;;
19189;SDS011;9727;50.200;19.038;2024-03-23T10:10:56;8.97;;;5.00;;
19189;SDS011;9727;50.200;19.038;2024-03-23T10:13:26;8.53;;;4.63;;
19189;SDS011;9727;50.200;19.038;2024-03-23T10:16:00;10.50;;;5.17;;
19189;SDS011;9727;50.200;19.038;2024-03-23T10:18:27;10.43;;;4.80;;
19189;SDS011;9727;50.200;19.038;2024-03-23T10:23:40;6.27;;;4.10;;
19189;SDS011;9727;50.200;19.038;2024-03-23T10:26:13;7.03;;;4.80;;
19189;SDS011;9727;50.200;19.038;2024-03-23T10:28:50;8.33;;;5.10;;
19189;SDS011;9727;50.200;19.038;2024-03-23T10:31:16;7.97;;;5.20;;
19189;SDS011;9727;50.200;19.038;2024-03-23T10:33:44;6.63;;;4.93;;
19189;SDS011;9727;50.200;19.038;2024-03-23T10:36:09;12.00;;;4.87;;
19189;SDS011;9727;50.200;19.038;2024-03-23T10:38:40;9.37;;;5.07;;
19189;SDS011;9727;50.200;19.038;2024-03-23T10:41:06;10.00;;;5.20;;
19189;SDS011;9727;50.200;19.038;2024-03-23T10:43:33;7.17;;;4.83;;
19189;SDS011;9727;50.200;19.038;2024-03-23T10:45:59;6.77;;;4.90;;
19189;SDS011;9727;50.200;19.038;2024-03-23T10:48:26;7.50;;;4.60;;
19189;SDS011;9727;50.200;19.038;2024-03-23T10:50:52;7.07;;;4.73;;
19189;SDS011;9727;50.200;19.038;2024-03-23T10:53:19;5.93;;;4.43;;
19189;SDS011;9727;50.200;19.038;2024-03-23T10:55:49;8.13;;;4.90;;
19189;SDS011;9727;50.200;19.038;2024-03-23T10:58:16;7.33;;;4.80;;
19189;SDS011;9727;50.200;19.038;2024-03-23T11:00:43;9.53;;;4.57;;
19189;SDS011;9727;50.200;19.038;2024-03-23T11:05:55;6.67;;;3.70;;
19189;SDS011;9727;50.200;19.038;2024-03-23T11:08:29;8.43;;;3.90;;
19189;SDS011;9727;50.200;19.038;2024-03-23T11:10:57;6.65;;;3.70;;
19189;SDS011;9727;50.200;19.038;2024-03-23T11:13:37;7.50;;;4.00;;
19189;SDS011;9727;50.200;19.038;2024-03-23T11:16:12;9.02;;;4.55;;
19189;SDS011;9727;50.200;19.038;2024-03-23T11:31:48;5.43;;;3.53;;
19189;SDS011;9727;50.200;19.038;2024-03-23T11:34:15;6.55;;;3.80;;
19189;SDS011;9727;50.200;19.038;2024-03-23T11:36:40;8.43;;;3.97;;
19189;SDS011;9727;50.200;19.038;2024-03-23T11:39:13;7.35;;;3.47;;
19189;SDS011;9727;50.200;19.038;2024-03-23T11:41:47;7.03;;;3.83;;
19189;SDS011;9727;50.200;19.038;2024-03-23T11:44:14;7.18;;;4.07;;
19189;SDS011;9727;50.200;19.038;2024-03-23T11:46:41;7.50;;;4.32;;
19189;SDS011;9727;50.200;19.038;2024-03-23T11:49:22;5.93;;;3.97;;
19189;SDS011;9727;50.200;19.038;2024-03-23T11:51:48;6.55;;;3.75;;
19189;SDS011;9727;50.200;19.038;2024-03-23T11:54:15;6.28;;;3.90;;
19189;SDS011;9727;50.200;19.038;2024-03-23T11:56:40;5.88;;;3.78;;
19189;SDS011;9727;50.200;19.038;2024-03-23T11:59:07;7.30;;;3.75;;
19189;SDS011;9727;50.200;19.038;2024-03-23T12:01:32;7.07;;;3.67;;
19189;SDS011;9727;50.200;19.038;2024-03-23T12:03:59;3.55;;;2.47;;
19189;SDS011;9727;50.200;19.038;2024-03-23T12:06:26;4.22;;;2.25;;
19189;SDS011;9727;50.200;19.038;2024-03-23T12:08:52;2.45;;;2.20;;
19189;SDS011;9727;50.200;19.038;2024-03-23T12:11:18;3.33;;;2.60;;
19189;SDS011;9727;50.200;19.038;2024-03-23T12:13:45;6.03;;;2.83;;
19189;SDS011;9727;50.200;19.038;2024-03-23T12:16:12;4.40;;;2.90;;
19189;SDS011;9727;50.200;19.038;2024-03-23T12:18:39;8.05;;;2.90;;
19189;SDS011;9727;50.200;19.038;2024-03-23T12:21:05;4.82;;;2.58;;
19189;SDS011;9727;50.200;19.038;2024-03-23T12:23:33;4.63;;;2.42;;
19189;SDS011;9727;50.200;19.038;2024-03-23T12:25:59;4.90;;;2.72;;
19189;SDS011;9727;50.200;19.038;2024-03-23T12:28:26;7.18;;;2.60;;
19189;SDS011;9727;50.200;19.038;2024-03-23T12:30:52;3.90;;;2.33;;
19189;SDS011;9727;50.200;19.038;2024-03-23T12:33:20;2.92;;;1.80;;
19189;SDS011;9727;50.200;19.038;2024-03-23T12:35:46;3.35;;;2.03;;
19189;SDS011;9727;50.200;19.038;2024-03-23T12:38:12;3.13;;;1.98;;
19189;SDS011;9727;50.200;19.038;2024-03-23T12:40:39;4.30;;;2.10;;
19189;SDS011;9727;50.200;19.038;2024-03-23T12:43:06;2.63;;;2.15;;
19189;SDS011;9727;50.200;19.038;2024-03-23T12:45:32;4.20;;;1.70;;
19189;SDS011;9727;50.200;19.038;2024-03-23T12:47:59;2.33;;;1.42;;
19189;SDS011;9727;50.200;19.038;2024-03-23T12:50:24;4.53;;;1.80;;
19189;SDS011;9727;50.200;19.038;2024-03-23T12:52:51;3.92;;;2.30;;
19189;SDS011;9727;50.200;19.038;2024-03-23T12:55:17;5.00;;;3.47;;
19189;SDS011;9727;50.200;19.038;2024-03-23T12:57:44;7.63;;;3.67;;
19189;SDS011;9727;50.200;19.038;2024-03-23T13:00:10;6.93;;;2.78;;
19189;SDS011;9727;50.200;19.038;2024-03-23T13:02:38;9.13;;;2.63;;
19189;SDS011;9727;50.200;19.038;2024-03-23T13:05:18;4.25;;;2.13;;
19189;SDS011;9727;50.200;19.038;2024-03-23T13:07:44;2.00;;;1.60;;
19189;SDS011;9727;50.200;19.038;2024-03-23T13:10:10;2.08;;;1.35;;
19189;SDS011;9727;50.200;19.038;2024-03-23T13:12:39;3.45;;;1.55;;
19189;SDS011;9727;50.200;19.038;2024-03-23T13:15:05;2.45;;;1.73;;
19189;SDS011;9727;50.200;19.038;2024-03-23T13:17:32;6.18;;;1.60;;
19189;SDS011;9727;50.200;19.038;2024-03-23T13:20:01;3.40;;;1.77;;
19189;SDS011;9727;50.200;19.038;2024-03-23T13:22:29;3.28;;;1.67;;
19189;SDS011;9727;50.200;19.038;2024-03-23T13:24:55;4.03;;;1.85;;
19189;SDS011;9727;50.200;19.038;2024-03-23T13:27:22;2.58;;;1.75;;
19189;SDS011;9727;50.200;19.038;2024-03-23T13:29:47;3.75;;;1.52;;
19189;SDS011;9727;50.200;19.038;2024-03-23T13:32:15;2.70;;;1.67;;
19189;SDS011;9727;50.200;19.038;2024-03-23T13:34:45;3.00;;;1.60;;
19189;SDS011;9727;50.200;19.038;2024-03-23T13:37:15;7.00;;;1.92;;
19189;SDS011;9727;50.200;19.038;2024-03-23T13:39:42;4.43;;;1.70;;
19189;SDS011;9727;50.200;19.038;2024-03-23T13:42:09;3.50;;;1.60;;
19189;SDS011;9727;50.200;19.038;2024-03-23T13:44:35;3.10;;;1.77;;
19189;SDS011;9727;50.200;19.038;2024-03-23T13:47:01;2.75;;;1.52;;
19189;SDS011;9727;50.200;19.038;2024-03-23T13:49:30;3.17;;;1.77;;
19189;SDS011;9727;50.200;19.038;2024-03-23T13:51:59;4.20;;;1.27;;
19189;SDS011;9727;50.200;19.038;2024-03-23T13:54:25;9.32;;;1.50;;
19189;SDS011;9727;50.200;19.038;2024-03-23T13:56:53;8.65;;;1.35;;
19189;SDS011;9727;50.200;19.038;2024-03-23T13:59:19;4.50;;;1.40;;
19189;SDS011;9727;50.200;19.038;2024-03-23T14:01:46;4.70;;;1.67;;
19189;SDS011;9727;50.200;19.038;2024-03-23T14:04:12;4.50;;;1.57;;
19189;SDS011;9727;50.200;19.038;2024-03-23T14:06:38;7.60;;;1.93;;
19189;SDS011;9727;50.200;19.038;2024-03-23T14:09:04;4.47;;;1.93;;
19189;SDS011;9727;50.200;19.038;2024-03-23T14:11:34;5.63;;;1.53;;
19189;SDS011;9727;50.200;19.038;2024-03-23T14:14:01;4.77;;;1.40;;
19189;SDS011;9727;50.200;19.038;2024-03-23T14:16:28;5.43;;;1.53;;
19189;SDS011;9727;50.200;19.038;2024-03-23T14:18:54;3.23;;;1.50;;
19189;SDS011;9727;50.200;19.038;2024-03-23T14:21:20;4.53;;;1.60;;
19189;SDS011;9727;50.200;19.038;2024-03-23T14:23:46;3.90;;;1.50;;
19189;SDS011;9727;50.200;19.038;2024-03-23T14:26:12;2.33;;;1.30;;
19189;SDS011;9727;50.200;19.038;2024-03-23T14:28:38;2.70;;;1.40;;
19189;SDS011;9727;50.200;19.038;2024-03-23T14:31:06;4.33;;;1.20;;
19189;SDS011;9727;50.200;19.038;2024-03-23T14:33:35;2.80;;;1.50;;
19189;SDS011;9727;50.200;19.038;2024-03-23T14:36:03;2.43;;;1.30;;
19189;SDS011;9727;50.200;19.038;2024-03-23T14:38:29;2.40;;;1.40;;
19189;SDS011;9727;50.200;19.038;2024-03-23T14:40:57;4.90;;;1.80;;
19189;SDS011;9727;50.200;19.038;2024-03-23T14:43:23;1.90;;;1.50;;
19189;SDS011;9727;50.200;19.038;2024-03-23T14:48:31;2.23;;;1.50;;
19189;SDS011;9727;50.200;19.038;2024-03-23T14:50:58;2.83;;;1.53;;
19189;SDS011;9727;50.200;19.038;2024-03-23T14:53:24;1.67;;;1.53;;
19189;SDS011;9727;50.200;19.038;2024-03-23T14:55:51;3.20;;;1.70;;
19189;SDS011;9727;50.200;19.038;2024-03-23T14:58:19;4.83;;;1.73;;
19189;SDS011;9727;50.200;19.038;2024-03-23T15:00:45;2.60;;;1.63;;
19189;SDS011;9727;50.200;19.038;2024-03-23T15:03:11;4.07;;;1.63;;
19189;SDS011;9727;50.200;19.038;2024-03-23T15:05:39;5.90;;;2.07;;
19189;SDS011;9727;50.200;19.038;2024-03-23T15:08:05;5.50;;;1.80;;
19189;SDS011;9727;50.200;19.038;2024-03-23T15:10:32;5.27;;;2.50;;
19189;SDS011;9727;50.200;19.038;2024-03-23T15:13:01;5.23;;;2.27;;
19189;SDS011;9727;50.200;19.038;2024-03-23T15:15:28;6.33;;;3.33;;
19189;SDS011;9727;50.200;19.038;2024-03-23T15:17:53;6.27;;;3.40;;
19189;SDS011;9727;50.200;19.038;2024-03-23T15:20:23;6.00;;;3.57;;
19189;SDS011;9727;50.200;19.038;2024-03-23T15:22:50;6.13;;;3.20;;
19189;SDS011;9727;50.200;19.038;2024-03-23T15:25:16;3.80;;;2.70;;
19189;SDS011;9727;50.200;19.038;2024-03-23T15:27:45;4.57;;;2.80;;
19189;SDS011;9727;50.200;19.038;2024-03-23T15:30:12;5.93;;;3.00;;
19189;SDS011;9727;50.200;19.038;2024-03-23T15:32:38;6.13;;;4.43;;
19189;SDS011;9727;50.200;19.038;2024-03-23T15:35:05;7.87;;;4.77;;
19189;SDS011;9727;50.200;19.038;2024-03-23T15:37:32;7.27;;;4.87;;
19189;SDS011;9727;50.200;19.038;2024-03-23T15:40:01;6.63;;;4.10;;
19189;SDS011;9727;50.200;19.038;2024-03-23T15:42:26;6.07;;;4.13;;
19189;SDS011;9727;50.200;19.038;2024-03-23T15:44:53;4.93;;;3.77;;
19189;SDS011;9727;50.200;19.038;2024-03-23T15:47:19;6.67;;;4.23;;
19189;SDS011;9727;50.200;19.038;2024-03-23T15:49:45;5.87;;;4.27;;
19189;SDS011;9727;50.200;19.038;2024-03-23T15:52:11;7.57;;;4.10;;
19189;SDS011;9727;50.200;19.038;2024-03-23T15:54:37;6.97;;;4.43;;
19189;SDS011;9727;50.200;19.038;2024-03-23T15:57:05;7.93;;;4.40;;